Terminal Aerodrome Forecast
Issued by NWS Newport/Morehead City, NC

Home | Current Version | Previous Version | Text Only | Print | Product List | Glossary On
Versions: 1 2 3 4 5 6 7 8 9 10 11 12 13 14
000
FTUS42 KMHX 011100
TAFEWN
TAF
KEWN 011121Z 0112/0212 24006KT P6SM OVC250
     FM011800 22008KT P6SM OVC150
     FM020100 16006KT P6SM OVC040
     FM020600 20010KT 5SM -RA OVC015=

USA.gov is the U.S. government's official web portal to all federal, state and local government web resources and services.